createdAt,value
2022-09-09T00:01:21.618Z,15.30
2022-09-09T00:03:54.157Z,15.40
2022-09-09T00:06:36.457Z,15.40
2022-09-09T00:09:07.965Z,15.20
2022-09-09T00:11:41.274Z,15.20
2022-09-09T00:14:12.546Z,15.20
2022-09-09T00:16:42.117Z,15.30
2022-09-09T00:19:14.888Z,15.30
2022-09-09T00:21:47.681Z,15.30
2022-09-09T00:24:26.525Z,15.30
2022-09-09T00:26:56.029Z,15.20
2022-09-09T00:29:26.145Z,15.20
2022-09-09T00:31:57.151Z,15.30
2022-09-09T00:34:25.532Z,15.40
2022-09-09T00:36:53.479Z,15.40
2022-09-09T00:39:26.595Z,15.40
2022-09-09T00:41:53.499Z,15.50
2022-09-09T00:44:20.251Z,15.50
2022-09-09T00:47:05.419Z,15.40
2022-09-09T00:49:50.596Z,15.50
2022-09-09T00:52:19.362Z,15.50
2022-09-09T00:54:53.174Z,15.50
2022-09-09T00:57:20.523Z,15.50
2022-09-09T00:59:58.213Z,15.50
2022-09-09T01:02:30.259Z,15.60
2022-09-09T01:05:11.605Z,15.80
2022-09-09T01:07:39.573Z,15.80
2022-09-09T01:10:18.509Z,15.70
2022-09-09T01:12:48.128Z,15.50
2022-09-09T01:15:22.502Z,15.60
2022-09-09T01:17:54.636Z,15.60
2022-09-09T01:20:31.233Z,15.60
2022-09-09T01:23:20.043Z,15.60
2022-09-09T01:26:04.663Z,15.60
2022-09-09T01:28:32.897Z,15.50
2022-09-09T01:31:05.214Z,15.50
2022-09-09T01:33:38.535Z,15.70
2022-09-09T01:36:09.083Z,15.60
2022-09-09T01:38:46.567Z,15.80
2022-09-09T01:41:13.514Z,15.70
2022-09-09T01:43:48.658Z,15.70
2022-09-09T01:46:15.743Z,15.70
2022-09-09T01:48:43.967Z,15.70
2022-09-09T01:51:11.684Z,15.70
2022-09-09T01:53:40.421Z,15.60
2022-09-09T01:56:17.949Z,15.70
2022-09-09T01:58:51.995Z,15.70
2022-09-09T02:01:37.498Z,15.70
2022-09-09T02:04:11.066Z,15.70
2022-09-09T02:06:40.511Z,15.90
2022-09-09T02:09:27.211Z,15.70
2022-09-09T02:12:13.118Z,15.70
2022-09-09T02:14:51.794Z,15.70
2022-09-09T02:17:23.838Z,15.90
2022-09-09T02:20:03.215Z,15.80
2022-09-09T02:22:42.556Z,15.60
2022-09-09T02:25:11.626Z,15.70
2022-09-09T02:27:39.331Z,15.70
2022-09-09T02:30:06.649Z,15.70
2022-09-09T02:32:40.588Z,15.70
2022-09-09T02:35:12.815Z,15.60
2022-09-09T02:37:42.915Z,15.60
2022-09-09T02:40:12.084Z,15.60
2022-09-09T02:42:44.327Z,15.60
2022-09-09T02:45:12.879Z,15.60
2022-09-09T02:47:45.712Z,15.60
2022-09-09T02:50:16.642Z,15.60
2022-09-09T02:52:43.514Z,15.50
2022-09-09T02:55:29.788Z,15.40
2022-09-09T02:57:59.770Z,15.30
2022-09-09T03:00:29.729Z,15.30
2022-09-09T03:03:00.939Z,15.30
2022-09-09T03:05:28.982Z,15.30
2022-09-09T03:07:56.078Z,15.30
2022-09-09T03:10:23.048Z,15.20
2022-09-09T03:12:49.922Z,15.30
2022-09-09T03:15:17.688Z,15.20
2022-09-09T03:17:45.034Z,15.20
2022-09-09T03:20:12.638Z,15.00
2022-09-09T03:22:39.685Z,15.00
2022-09-09T03:25:06.870Z,15.00
2022-09-09T03:27:36.360Z,15.00
2022-09-09T03:30:04.818Z,14.90
2022-09-09T03:32:32.374Z,15.00
2022-09-09T03:34:59.391Z,14.90
2022-09-09T03:37:26.581Z,15.00
2022-09-09T03:39:55.627Z,15.20
2022-09-09T03:42:23.474Z,15.30
2022-09-09T03:44:53.521Z,15.30
2022-09-09T03:47:23.889Z,15.30
2022-09-09T03:49:55.084Z,15.30
2022-09-09T03:52:26.157Z,15.20
2022-09-09T03:54:54.382Z,15.10
2022-09-09T03:57:22.668Z,15.20
2022-09-09T03:59:50.278Z,15.30
2022-09-09T04:02:17.252Z,15.30
2022-09-09T04:04:44.280Z,15.30
2022-09-09T04:07:13.074Z,15.30
2022-09-09T04:09:41.069Z,15.20
2022-09-09T04:12:08.561Z,15.30
2022-09-09T04:14:36.483Z,15.30
2022-09-09T04:17:07.246Z,15.20
2022-09-09T04:19:34.646Z,15.30
2022-09-09T04:22:02.590Z,15.20
2022-09-09T04:24:30.272Z,15.20
2022-09-09T04:26:59.712Z,15.20
2022-09-09T04:29:27.847Z,15.20
2022-09-09T04:31:54.757Z,15.20
2022-09-09T04:34:22.194Z,15.30
2022-09-09T04:36:49.357Z,15.30
2022-09-09T04:39:16.291Z,15.40
2022-09-09T04:41:43.173Z,15.40
2022-09-09T04:44:11.296Z,15.30
2022-09-09T04:46:38.634Z,15.40
2022-09-09T04:49:06.370Z,15.30
2022-09-09T04:51:34.355Z,15.20
2022-09-09T04:54:01.266Z,15.30
2022-09-09T04:56:28.139Z,15.20
2022-09-09T04:58:59.398Z,15.20
2022-09-09T05:01:37.599Z,15.10
2022-09-09T05:04:05.858Z,15.20
2022-09-09T05:06:34.712Z,15.10
2022-09-09T05:09:02.323Z,15.10
2022-09-09T05:11:33.103Z,15.10
2022-09-09T05:14:29.135Z,15.20
2022-09-09T05:16:57.149Z,15.30
2022-09-09T05:19:24.950Z,15.40
2022-09-09T05:21:53.432Z,15.40
2022-09-09T05:24:26.242Z,15.40
2022-09-09T05:26:59.148Z,15.50
2022-09-09T05:29:27.625Z,15.40
2022-09-09T05:31:56.152Z,15.40
2022-09-09T05:34:23.474Z,15.50
2022-09-09T05:36:52.668Z,15.40
2022-09-09T05:39:21.831Z,15.60
2022-09-09T05:41:49.260Z,15.40
2022-09-09T05:44:16.455Z,15.40
2022-09-09T05:46:45.769Z,15.30
2022-09-09T05:49:13.744Z,15.30
2022-09-09T05:51:41.704Z,15.40
2022-09-09T05:54:11.965Z,15.40
2022-09-09T05:56:43.838Z,15.40
2022-09-09T05:59:10.811Z,15.50
2022-09-09T06:01:42.142Z,15.50
2022-09-09T06:04:16.508Z,15.60
2022-09-09T06:06:44.152Z,15.70
2022-09-09T06:09:14.660Z,15.80
2022-09-09T06:11:43.279Z,16.00
2022-09-09T06:14:11.876Z,16.30
2022-09-09T06:16:40.578Z,16.40
2022-09-09T06:19:16.024Z,16.50
2022-09-09T06:21:45.502Z,16.40
2022-09-09T06:24:14.859Z,16.70
2022-09-09T06:26:42.338Z,16.70
2022-09-09T06:29:12.032Z,16.60
2022-09-09T06:31:39.842Z,16.70
2022-09-09T06:34:14.234Z,16.80
2022-09-09T06:36:46.923Z,17.00
2022-09-09T06:39:15.247Z,17.20
2022-09-09T06:41:43.773Z,17.20
2022-09-09T06:44:35.282Z,17.40
2022-09-09T06:47:03.779Z,17.70
2022-09-09T06:49:31.963Z,17.90
2022-09-09T06:51:59.256Z,18.00
2022-09-09T06:54:27.142Z,18.10
2022-09-09T06:56:54.543Z,18.00
2022-09-09T06:59:24.149Z,18.10
2022-09-09T07:01:56.684Z,18.30
2022-09-09T07:04:27.320Z,18.40
2022-09-09T07:06:54.290Z,18.60
2022-09-09T07:09:26.910Z,18.70
2022-09-09T07:11:55.062Z,18.70
2022-09-09T07:14:24.139Z,19.00
2022-09-09T07:16:59.763Z,19.10
2022-09-09T07:19:29.635Z,18.90
2022-09-09T07:21:57.892Z,19.00
2022-09-09T07:24:31.547Z,19.20
2022-09-09T07:27:00.687Z,19.20
2022-09-09T07:29:29.412Z,19.30
2022-09-09T07:31:58.383Z,19.50
2022-09-09T07:34:31.639Z,19.50
2022-09-09T07:36:59.144Z,19.70
2022-09-09T07:39:25.931Z,19.90
2022-09-09T07:41:55.652Z,20.20
2022-09-09T07:44:25.851Z,20.30
2022-09-09T07:47:09.859Z,20.10
2022-09-09T07:49:44.264Z,20.50
2022-09-09T07:52:13.204Z,20.90
2022-09-09T07:54:46.666Z,20.80
2022-09-09T07:57:14.499Z,21.00
2022-09-09T07:59:42.072Z,21.20
2022-09-09T08:02:10.570Z,21.60
2022-09-09T08:04:39.074Z,21.40
2022-09-09T08:07:06.205Z,21.40
2022-09-09T08:09:39.982Z,21.20
2022-09-09T08:12:14.151Z,21.00
2022-09-09T08:14:41.432Z,20.70
2022-09-09T08:17:08.359Z,20.90
2022-09-09T08:19:36.887Z,21.30
2022-09-09T08:22:08.793Z,21.30
2022-09-09T08:24:37.302Z,21.50
2022-09-09T08:27:04.260Z,21.60
2022-09-09T08:29:32.307Z,22.70
2022-09-09T08:31:59.597Z,23.70
2022-09-09T08:34:28.099Z,23.80
2022-09-09T08:36:57.131Z,24.10
2022-09-09T08:39:30.538Z,23.10
2022-09-09T08:42:01.450Z,22.30
2022-09-09T08:44:49.319Z,21.60
2022-09-09T08:47:21.739Z,21.40
2022-09-09T08:49:49.174Z,21.80
2022-09-09T08:52:33.671Z,22.90
2022-09-09T08:55:13.546Z,23.60
2022-09-09T08:57:40.703Z,24.70
2022-09-09T09:00:10.289Z,25.90
2022-09-09T09:02:55.821Z,26.00
2022-09-09T09:05:37.316Z,26.10
2022-09-09T09:08:05.335Z,25.00
2022-09-09T09:10:50.386Z,25.60
2022-09-09T09:13:43.827Z,26.90
2022-09-09T09:16:13.871Z,25.60
2022-09-09T09:18:40.992Z,24.90
2022-09-09T09:21:26.047Z,23.80
2022-09-09T09:23:53.104Z,23.50
2022-09-09T09:26:20.732Z,23.50
2022-09-09T09:28:48.143Z,22.60
2022-09-09T09:31:18.646Z,22.40
2022-09-09T09:33:50.634Z,22.40
2022-09-09T09:36:19.987Z,21.80
2022-09-09T09:41:47.084Z,19.10
2022-09-09T09:44:31.849Z,17.50
2022-09-09T09:47:15.499Z,15.90
2022-09-09T09:49:52.975Z,15.20
2022-09-09T09:52:24.993Z,14.90
2022-09-09T09:54:53.382Z,15.00
2022-09-09T09:57:25.446Z,15.30
2022-09-09T10:00:02.822Z,15.50
2022-09-09T10:02:38.385Z,16.10
2022-09-09T10:05:26.753Z,17.80
2022-09-09T10:08:25.135Z,19.00
2022-09-09T10:11:04.376Z,19.70
2022-09-09T10:13:32.255Z,21.90
2022-09-09T10:16:05.202Z,23.80
2022-09-09T10:18:39.044Z,25.40
2022-09-09T10:21:09.057Z,25.50
2022-09-09T10:23:51.254Z,26.40
2022-09-09T10:26:40.944Z,25.90
2022-09-09T10:29:13.517Z,28.00
2022-09-09T10:32:06.917Z,27.90
2022-09-09T10:34:43.079Z,27.80
2022-09-09T10:37:26.486Z,27.70
2022-09-09T10:40:06.282Z,26.90
2022-09-09T10:42:33.651Z,26.30
2022-09-09T10:45:21.212Z,26.20
2022-09-09T10:48:10.988Z,26.00
2022-09-09T10:51:03.843Z,26.00
2022-09-09T10:53:46.811Z,26.30
2022-09-09T10:56:17.633Z,26.10
2022-09-09T10:58:50.338Z,26.40
2022-09-09T11:01:19.835Z,25.90
2022-09-09T11:03:53.811Z,26.20
2022-09-09T11:06:25.753Z,26.80
2022-09-09T11:08:56.529Z,27.30
2022-09-09T11:11:33.160Z,26.70
2022-09-09T11:14:06.616Z,26.60
2022-09-09T11:16:53.649Z,27.20
2022-09-09T11:19:37.012Z,27.00
2022-09-09T11:22:16.587Z,28.20
2022-09-09T11:24:51.759Z,26.60
2022-09-09T11:27:28.219Z,26.20
2022-09-09T11:30:32.321Z,25.00
2022-09-09T11:33:40.227Z,24.40
2022-09-09T11:36:26.185Z,24.80
2022-09-09T11:38:59.779Z,24.80
2022-09-09T11:41:38.551Z,24.90
2022-09-09T11:44:14.812Z,26.50
2022-09-09T11:46:42.815Z,26.40
2022-09-09T11:49:29.653Z,24.80
2022-09-09T11:51:56.715Z,24.30
2022-09-09T11:54:34.485Z,24.50
2022-09-09T11:57:03.043Z,24.80
2022-09-09T11:59:32.568Z,24.70
2022-09-09T12:02:27.725Z,25.20
2022-09-09T12:05:13.464Z,25.80
2022-09-09T12:07:47.327Z,25.70
2022-09-09T12:10:23.487Z,27.10
2022-09-09T12:12:50.699Z,27.90
2022-09-09T12:15:30.184Z,28.30
2022-09-09T12:18:03.910Z,27.60
2022-09-09T12:20:32.446Z,27.60
2022-09-09T12:23:32.404Z,26.60
2022-09-09T12:26:35.321Z,25.50
2022-09-09T12:29:34.990Z,27.10
2022-09-09T12:32:12.606Z,26.60
2022-09-09T12:34:50.090Z,26.00
2022-09-09T12:37:35.618Z,25.90
2022-09-09T12:40:08.593Z,25.70
2022-09-09T12:42:42.984Z,25.20
2022-09-09T12:45:23.193Z,25.70
2022-09-09T12:47:55.788Z,25.70
2022-09-09T12:50:30.108Z,26.10
2022-09-09T12:53:47.227Z,27.70
2022-09-09T12:56:35.424Z,31.40
2022-09-09T12:59:02.816Z,31.40
2022-09-09T13:01:37.579Z,32.60
2022-09-09T13:04:25.757Z,33.00
2022-09-09T13:06:54.222Z,32.00
2022-09-09T13:09:22.929Z,32.50
2022-09-09T13:11:56.356Z,32.50
2022-09-09T13:14:35.827Z,34.40
2022-09-09T13:17:07.169Z,35.30
2022-09-09T13:19:41.138Z,34.30
2022-09-09T13:22:22.938Z,32.90
2022-09-09T13:25:19.947Z,33.20
2022-09-09T13:27:59.839Z,33.30
2022-09-09T13:30:28.600Z,30.60
2022-09-09T13:33:14.006Z,29.90
2022-09-09T13:36:03.925Z,29.50
2022-09-09T13:38:33.603Z,27.00
2022-09-09T13:41:09.454Z,25.70
2022-09-09T13:43:42.980Z,24.60
2022-09-09T13:46:36.615Z,23.50
2022-09-09T13:49:23.892Z,22.80
2022-09-09T13:52:05.290Z,22.30
2022-09-09T13:54:32.331Z,22.10
2022-09-09T13:56:59.299Z,22.00
2022-09-09T13:59:42.446Z,21.60
2022-09-09T14:02:14.789Z,21.50
2022-09-09T14:04:44.510Z,20.90
2022-09-09T14:07:16.154Z,20.90
2022-09-09T14:09:43.526Z,20.70
2022-09-09T14:12:14.865Z,20.70
2022-09-09T14:14:43.131Z,21.40
2022-09-09T14:17:10.489Z,24.80
2022-09-09T14:19:38.185Z,28.40
2022-09-09T14:22:05.305Z,29.00
2022-09-09T14:24:32.211Z,28.50
2022-09-09T14:26:59.160Z,26.70
2022-09-09T14:29:27.819Z,25.90
2022-09-09T14:31:54.766Z,25.10
2022-09-09T14:34:21.730Z,24.00
2022-09-09T14:36:48.794Z,23.50
2022-09-09T14:39:15.676Z,22.80
2022-09-09T14:41:42.579Z,22.40
2022-09-09T14:44:09.684Z,22.00
2022-09-09T14:46:36.947Z,22.00
2022-09-09T14:49:03.964Z,21.90
2022-09-09T14:51:30.959Z,21.90
2022-09-09T14:54:00.475Z,21.50
2022-09-09T14:56:30.613Z,21.30
2022-09-09T14:58:59.577Z,20.90
2022-09-09T15:01:28.371Z,20.60
2022-09-09T15:03:56.654Z,20.40
2022-09-09T15:06:24.774Z,20.30
2022-09-09T15:08:53.502Z,20.20
2022-09-09T15:11:21.565Z,19.80
2022-09-09T15:13:53.092Z,19.90
2022-09-09T15:16:21.065Z,20.00
2022-09-09T15:18:51.602Z,20.30
2022-09-09T15:21:20.636Z,21.50
2022-09-09T15:23:48.578Z,21.80
2022-09-09T15:26:16.616Z,21.90
2022-09-09T15:28:45.401Z,22.10
2022-09-09T15:31:18.759Z,22.00
2022-09-09T15:34:03.079Z,21.90
2022-09-09T15:36:38.285Z,21.60
2022-09-09T15:39:07.625Z,21.00
2022-09-09T15:41:34.892Z,20.60
2022-09-09T15:44:02.984Z,20.40
2022-09-09T15:46:31.748Z,20.20
2022-09-09T15:49:13.957Z,19.90
2022-09-09T15:51:45.796Z,19.70
2022-09-09T15:54:15.108Z,19.60
2022-09-09T15:56:42.683Z,19.50
2022-09-09T15:59:10.085Z,19.40
2022-09-09T16:01:37.320Z,19.40
2022-09-09T16:04:04.973Z,19.20
2022-09-09T16:06:32.230Z,19.30
2022-09-09T16:09:01.965Z,19.30
2022-09-09T16:11:36.019Z,19.30
2022-09-09T16:14:05.270Z,19.20
2022-09-09T16:16:32.380Z,19.20
2022-09-09T16:19:03.299Z,19.10
2022-09-09T16:21:36.680Z,18.80
2022-09-09T16:24:05.105Z,18.50
2022-09-09T16:26:34.858Z,18.40
2022-09-09T16:29:03.090Z,18.40
2022-09-09T16:31:31.037Z,18.50
2022-09-09T16:33:58.924Z,18.60
2022-09-09T16:36:28.692Z,18.60
2022-09-09T16:38:58.446Z,18.60
2022-09-09T16:41:26.976Z,18.90
2022-09-09T16:44:08.350Z,19.20
2022-09-09T16:46:39.814Z,19.10
2022-09-09T16:49:09.803Z,19.30
2022-09-09T16:51:48.452Z,19.30
2022-09-09T16:54:18.247Z,19.50
2022-09-09T16:56:47.340Z,19.60
2022-09-09T16:59:16.937Z,19.60
2022-09-09T17:01:46.649Z,19.60
2022-09-09T17:04:21.195Z,19.50
2022-09-09T17:06:52.527Z,19.20
2022-09-09T17:09:20.842Z,18.90
2022-09-09T17:11:48.946Z,18.70
2022-09-09T17:14:18.600Z,18.60
2022-09-09T17:16:45.951Z,18.50
2022-09-09T17:19:13.993Z,18.50
2022-09-09T17:21:55.001Z,18.50
2022-09-09T17:24:30.036Z,18.40
2022-09-09T17:26:58.481Z,18.40
2022-09-09T17:29:26.038Z,18.30
2022-09-09T17:31:53.372Z,18.30
2022-09-09T17:34:20.369Z,18.20
2022-09-09T17:36:47.948Z,18.10
2022-09-09T17:39:14.923Z,18.10
2022-09-09T17:41:42.371Z,18.00
2022-09-09T17:44:10.759Z,17.90
2022-09-09T17:46:44.031Z,17.90
2022-09-09T17:49:13.959Z,17.80
2022-09-09T17:51:42.875Z,17.70
2022-09-09T17:54:15.716Z,17.60
2022-09-09T17:56:43.048Z,17.50
2022-09-09T17:59:14.023Z,17.30
2022-09-09T18:01:45.027Z,17.00
2022-09-09T18:04:14.299Z,16.80
2022-09-09T18:06:47.071Z,16.40
2022-09-09T18:09:17.967Z,16.00
2022-09-09T18:11:47.513Z,15.70
2022-09-09T18:14:18.124Z,15.50
2022-09-09T18:16:46.029Z,15.40
2022-09-09T18:19:16.403Z,15.20
2022-09-09T18:21:44.666Z,15.10
2022-09-09T18:24:13.315Z,15.00
2022-09-09T18:26:41.108Z,14.80
2022-09-09T18:29:11.330Z,15.00
2022-09-09T18:31:38.928Z,15.00
2022-09-09T18:34:09.270Z,15.00
2022-09-09T18:36:44.506Z,14.80
2022-09-09T18:39:13.747Z,15.00
2022-09-09T18:41:46.516Z,14.80
2022-09-09T18:44:16.664Z,15.00
2022-09-09T18:46:44.486Z,15.00
2022-09-09T18:49:12.639Z,14.90
2022-09-09T18:51:41.319Z,14.90
2022-09-09T18:54:13.492Z,14.90
2022-09-09T18:56:41.388Z,14.90
2022-09-09T18:59:11.187Z,15.00
2022-09-09T19:01:38.326Z,15.00
2022-09-09T19:04:07.119Z,15.20
2022-09-09T19:06:38.063Z,15.10
2022-09-09T19:09:05.985Z,15.10
2022-09-09T19:11:33.741Z,15.10
2022-09-09T19:14:03.005Z,15.10
2022-09-09T19:16:33.829Z,15.20
2022-09-09T19:19:04.388Z,15.20
2022-09-09T19:21:34.053Z,15.30
2022-09-09T19:24:15.717Z,15.50
2022-09-09T19:26:45.756Z,15.70
2022-09-09T19:29:16.335Z,15.70
2022-09-09T19:32:01.999Z,15.80
2022-09-09T19:34:31.793Z,15.90
2022-09-09T19:36:58.800Z,16.00
2022-09-09T19:39:26.606Z,15.90
2022-09-09T19:41:53.506Z,15.90
2022-09-09T19:44:20.515Z,15.80
2022-09-09T19:46:47.413Z,15.70
2022-09-09T19:49:18.139Z,15.60
2022-09-09T19:51:46.881Z,15.50
2022-09-09T19:54:14.197Z,15.50
2022-09-09T19:56:42.832Z,15.30
2022-09-09T19:59:11.768Z,15.20
2022-09-09T20:01:41.978Z,15.20
2022-09-09T20:04:09.343Z,15.30
2022-09-09T20:06:39.792Z,15.40
2022-09-09T20:09:08.484Z,15.30
2022-09-09T20:11:35.455Z,15.40
2022-09-09T20:14:02.482Z,15.30
2022-09-09T20:16:31.034Z,15.20
2022-09-09T20:19:01.918Z,15.00
2022-09-09T20:21:35.152Z,14.90
2022-09-09T20:24:05.890Z,14.70
2022-09-09T20:26:35.234Z,14.60
2022-09-09T20:29:07.684Z,14.50
2022-09-09T20:31:37.112Z,14.60
2022-09-09T20:34:06.156Z,14.50
2022-09-09T20:36:35.544Z,14.40
2022-09-09T20:39:16.999Z,14.30
2022-09-09T20:41:47.360Z,14.30
2022-09-09T20:44:23.603Z,14.10
2022-09-09T20:46:55.524Z,14.10
2022-09-09T20:49:24.385Z,14.10
2022-09-09T20:51:53.574Z,14.10
2022-09-09T20:54:26.771Z,14.00
2022-09-09T20:56:55.455Z,14.10
2022-09-09T20:59:26.319Z,14.00
2022-09-09T21:01:55.244Z,14.00
2022-09-09T21:04:25.043Z,14.00
2022-09-09T21:06:52.269Z,14.00
2022-09-09T21:09:23.210Z,13.90
2022-09-09T21:11:50.760Z,13.80
2022-09-09T21:14:17.719Z,13.70
2022-09-09T21:16:45.828Z,13.60
2022-09-09T21:19:13.083Z,13.60
2022-09-09T21:21:40.134Z,13.60
2022-09-09T21:24:07.291Z,13.70
2022-09-09T21:26:35.568Z,13.70
2022-09-09T21:29:02.752Z,13.80
2022-09-09T21:31:29.831Z,13.80
2022-09-09T21:33:58.143Z,13.80
2022-09-09T21:36:27.239Z,13.80
2022-09-09T21:38:54.166Z,13.70
2022-09-09T21:41:21.625Z,13.80
2022-09-09T21:43:52.600Z,13.80
2022-09-09T21:46:20.229Z,14.00
2022-09-09T21:48:47.235Z,13.90
2022-09-09T21:51:16.534Z,13.90
2022-09-09T21:53:43.976Z,14.00
2022-09-09T21:56:16.440Z,14.10
2022-09-09T21:58:43.769Z,14.20
2022-09-09T22:01:16.417Z,14.20
2022-09-09T22:03:44.340Z,14.10
2022-09-09T22:06:14.628Z,14.20
2022-09-09T22:08:42.798Z,14.10
2022-09-09T22:11:18.936Z,14.10
2022-09-09T22:13:46.251Z,14.10
2022-09-09T22:16:15.509Z,14.00
2022-09-09T22:18:43.001Z,13.90
2022-09-09T22:21:18.277Z,13.90
2022-09-09T22:23:50.359Z,14.00
2022-09-09T22:26:17.506Z,13.90
2022-09-09T22:28:44.437Z,13.90
2022-09-09T22:31:11.652Z,14.00
2022-09-09T22:33:38.580Z,14.10
2022-09-09T22:36:05.899Z,14.00
2022-09-09T22:38:36.520Z,14.00
2022-09-09T22:41:04.350Z,13.90
2022-09-09T22:43:35.117Z,14.00
2022-09-09T22:46:02.547Z,14.00
2022-09-09T22:48:33.711Z,14.10
2022-09-09T22:51:05.287Z,14.20
2022-09-09T22:53:36.156Z,14.20
2022-09-09T22:56:07.703Z,14.10
2022-09-09T22:58:36.927Z,14.20
2022-09-09T23:01:19.340Z,14.20
2022-09-09T23:03:47.131Z,14.20
2022-09-09T23:06:22.207Z,14.20
2022-09-09T23:08:58.593Z,14.20
2022-09-09T23:11:31.526Z,14.20
2022-09-09T23:14:00.846Z,14.20
2022-09-09T23:16:32.970Z,14.20
2022-09-09T23:19:03.056Z,14.30
2022-09-09T23:21:31.006Z,14.30
2022-09-09T23:23:59.635Z,14.40
2022-09-09T23:26:29.815Z,14.30
2022-09-09T23:28:58.564Z,14.30
2022-09-09T23:31:29.288Z,14.40
2022-09-09T23:33:58.084Z,14.30
2022-09-09T23:36:25.838Z,14.30
2022-09-09T23:38:56.217Z,14.30
2022-09-09T23:41:23.519Z,14.30
2022-09-09T23:43:52.699Z,14.30
2022-09-09T23:46:22.481Z,14.30
2022-09-09T23:48:52.195Z,14.30
2022-09-09T23:51:24.163Z,14.20
2022-09-09T23:53:57.119Z,14.20
2022-09-09T23:56:28.279Z,14.30
2022-09-09T23:58:55.639Z,14.10
